createdAt,value
2017-12-31T00:02:49.006Z,8.80
2017-12-31T00:05:58.905Z,8.70
2017-12-31T00:09:08.544Z,8.70
2017-12-31T00:12:18.264Z,8.70
2017-12-31T00:15:28.542Z,8.70
2017-12-31T00:18:39.195Z,8.80
2017-12-31T00:21:49.051Z,8.80
2017-12-31T00:24:59.086Z,8.80
2017-12-31T00:28:08.842Z,8.80
2017-12-31T00:31:18.972Z,8.80
2017-12-31T00:34:29.690Z,8.90
2017-12-31T00:37:40.425Z,8.90
2017-12-31T00:40:50.313Z,8.90
2017-12-31T00:44:00.195Z,8.90
2017-12-31T00:47:10.162Z,8.90
2017-12-31T00:50:19.927Z,8.90
2017-12-31T00:53:31.420Z,9.00
2017-12-31T00:56:41.644Z,9.00
2017-12-31T00:59:52.339Z,9.00
2017-12-31T01:03:02.312Z,9.10
2017-12-31T01:06:12.402Z,9.10
2017-12-31T01:09:23.200Z,9.00
2017-12-31T01:12:33.275Z,9.00
2017-12-31T01:15:43.054Z,9.10
2017-12-31T01:18:53.577Z,9.00
2017-12-31T01:22:04.102Z,9.00
2017-12-31T01:25:13.950Z,9.10
2017-12-31T01:28:24.048Z,9.10
2017-12-31T01:31:34.583Z,9.00
2017-12-31T01:34:44.785Z,9.00
2017-12-31T01:37:54.669Z,9.10
2017-12-31T01:41:05.390Z,9.10
2017-12-31T01:44:15.676Z,9.00
2017-12-31T01:47:25.444Z,9.10
2017-12-31T01:50:36.116Z,9.10
2017-12-31T01:53:46.739Z,9.10
2017-12-31T01:56:56.934Z,9.10
2017-12-31T02:00:06.784Z,9.10
2017-12-31T02:03:16.646Z,9.10
2017-12-31T02:06:26.452Z,9.00
2017-12-31T02:09:36.020Z,9.00
2017-12-31T02:12:45.946Z,9.10
2017-12-31T02:15:56.451Z,9.00
2017-12-31T02:19:06.563Z,9.00
2017-12-31T02:22:16.234Z,9.00
2017-12-31T02:25:26.229Z,9.00
2017-12-31T02:28:37.084Z,9.00
2017-12-31T02:31:46.945Z,9.00
2017-12-31T02:34:56.801Z,9.00
2017-12-31T02:38:06.700Z,9.00
2017-12-31T02:41:16.587Z,9.00
2017-12-31T02:44:27.327Z,9.00
2017-12-31T02:47:37.972Z,9.00
2017-12-31T02:50:47.992Z,9.00
2017-12-31T02:53:58.611Z,8.90
2017-12-31T02:57:09.098Z,9.00
2017-12-31T03:00:19.066Z,9.00
2017-12-31T03:03:29.141Z,9.00
2017-12-31T03:06:39.387Z,9.00
2017-12-31T03:09:49.231Z,9.00
2017-12-31T03:12:59.017Z,9.00
2017-12-31T03:16:09.495Z,9.10
2017-12-31T03:19:19.410Z,9.10
2017-12-31T03:22:29.162Z,9.00
2017-12-31T03:25:38.928Z,9.00
2017-12-31T03:28:48.830Z,9.00
2017-12-31T03:32:00.247Z,9.00
2017-12-31T03:35:10.278Z,9.00
2017-12-31T03:38:20.083Z,9.00
2017-12-31T03:41:29.816Z,9.00
2017-12-31T03:44:41.262Z,9.00
2017-12-31T03:47:52.008Z,8.90
2017-12-31T03:51:02.052Z,8.90
2017-12-31T03:54:12.142Z,8.90
2017-12-31T03:57:21.967Z,8.90
2017-12-31T04:00:31.911Z,8.80
2017-12-31T04:03:41.638Z,8.80
2017-12-31T04:06:53.018Z,8.70
2017-12-31T04:10:03.313Z,8.70
2017-12-31T04:13:14.149Z,8.70
2017-12-31T04:16:24.642Z,8.70
2017-12-31T04:19:34.552Z,8.70
2017-12-31T04:22:44.290Z,8.60
2017-12-31T04:25:54.906Z,8.60
2017-12-31T04:29:04.760Z,8.50
2017-12-31T04:32:15.450Z,8.50
2017-12-31T04:35:25.383Z,8.50
2017-12-31T04:38:35.338Z,8.50
2017-12-31T04:41:45.946Z,8.40
2017-12-31T04:44:56.784Z,8.40
2017-12-31T04:48:06.977Z,8.40
2017-12-31T04:51:18.425Z,8.40
2017-12-31T04:54:28.756Z,8.40
2017-12-31T04:57:39.379Z,8.30
2017-12-31T05:00:49.435Z,8.30
2017-12-31T05:04:00.103Z,8.30
2017-12-31T05:07:09.860Z,8.30
2017-12-31T05:10:20.461Z,8.20
2017-12-31T05:13:31.115Z,8.20
2017-12-31T05:16:41.279Z,8.20
2017-12-31T05:19:51.951Z,8.20
2017-12-31T05:23:01.719Z,8.20
2017-12-31T05:26:12.342Z,8.10
2017-12-31T05:29:22.427Z,8.10
2017-12-31T05:32:32.420Z,8.10
2017-12-31T05:35:42.404Z,8.10
2017-12-31T05:38:53.059Z,8.10
2017-12-31T05:42:02.835Z,8.10
2017-12-31T05:45:13.550Z,8.10
2017-12-31T05:48:23.438Z,8.00
2017-12-31T05:51:33.437Z,8.00
2017-12-31T05:54:44.133Z,8.00
2017-12-31T05:57:53.952Z,8.00
2017-12-31T06:01:04.622Z,8.00
2017-12-31T06:04:15.422Z,8.00
2017-12-31T06:07:25.361Z,8.00
2017-12-31T06:10:36.103Z,8.00
2017-12-31T06:13:47.928Z,8.00
2017-12-31T06:16:58.534Z,8.00
2017-12-31T06:20:09.211Z,8.00
2017-12-31T06:23:19.839Z,8.00
2017-12-31T06:26:30.436Z,8.00
2017-12-31T06:29:40.937Z,8.00
2017-12-31T06:32:50.965Z,8.10
2017-12-31T06:36:00.758Z,8.00
2017-12-31T06:39:11.322Z,8.00
2017-12-31T06:42:21.111Z,8.00
2017-12-31T06:45:30.964Z,8.00
2017-12-31T06:48:41.695Z,8.00
2017-12-31T06:51:51.425Z,8.00
2017-12-31T06:55:01.198Z,8.10
2017-12-31T06:58:12.467Z,8.10
2017-12-31T07:01:22.754Z,8.10
2017-12-31T07:04:32.546Z,8.10
2017-12-31T07:07:42.164Z,8.10
2017-12-31T07:10:52.684Z,8.20
2017-12-31T07:14:02.668Z,8.10
2017-12-31T07:17:12.367Z,8.20
2017-12-31T07:20:22.089Z,8.20
2017-12-31T07:23:32.864Z,8.30
2017-12-31T07:26:45.704Z,8.40
2017-12-31T07:29:55.498Z,8.40
2017-12-31T07:33:06.042Z,8.60
2017-12-31T07:36:16.083Z,8.60
2017-12-31T07:39:25.839Z,8.70
2017-12-31T07:42:35.659Z,8.70
2017-12-31T07:45:45.523Z,8.90
2017-12-31T07:48:56.374Z,8.90
2017-12-31T07:52:07.152Z,9.10
2017-12-31T07:55:17.639Z,9.20
2017-12-31T07:58:28.470Z,9.20
2017-12-31T08:01:38.391Z,9.20
2017-12-31T08:04:48.123Z,9.20
2017-12-31T08:07:58.634Z,9.30
2017-12-31T08:11:08.753Z,9.30
2017-12-31T08:14:18.473Z,9.40
2017-12-31T08:17:29.167Z,9.40
2017-12-31T08:20:39.849Z,9.40
2017-12-31T08:23:49.608Z,9.40
2017-12-31T08:27:01.039Z,9.60
2017-12-31T08:30:11.169Z,9.60
2017-12-31T08:33:21.920Z,9.60
2017-12-31T08:36:31.674Z,9.60
2017-12-31T08:39:41.527Z,9.70
2017-12-31T08:42:52.223Z,9.70
2017-12-31T08:46:02.842Z,9.70
2017-12-31T08:49:14.316Z,9.90
2017-12-31T08:52:24.460Z,9.90
2017-12-31T08:55:35.214Z,9.90
2017-12-31T08:58:45.097Z,9.90
2017-12-31T09:01:55.837Z,9.90
2017-12-31T09:05:06.450Z,9.90
2017-12-31T09:08:17.163Z,10.00
2017-12-31T09:11:27.897Z,9.90
2017-12-31T09:14:38.631Z,10.00
2017-12-31T09:17:48.427Z,10.00
2017-12-31T09:20:59.052Z,10.00
2017-12-31T09:24:08.914Z,10.10
2017-12-31T09:27:18.894Z,10.10
2017-12-31T09:30:29.444Z,10.20
2017-12-31T09:33:39.819Z,10.20
2017-12-31T09:36:49.977Z,10.10
2017-12-31T09:40:00.569Z,10.20
2017-12-31T09:43:10.496Z,10.10
2017-12-31T09:46:20.286Z,10.20
2017-12-31T09:49:30.124Z,10.20
2017-12-31T09:52:39.975Z,10.20
2017-12-31T09:55:49.970Z,10.10
2017-12-31T09:59:01.424Z,10.20
2017-12-31T10:02:11.774Z,10.20
2017-12-31T10:05:22.434Z,10.40
2017-12-31T10:08:32.746Z,10.30
2017-12-31T10:11:42.744Z,10.50
2017-12-31T10:14:53.414Z,10.60
2017-12-31T10:18:03.241Z,10.60
2017-12-31T10:21:13.077Z,10.60
2017-12-31T10:24:23.805Z,10.60
2017-12-31T10:27:35.304Z,10.80
2017-12-31T10:30:45.539Z,10.80
2017-12-31T10:33:55.387Z,11.00
2017-12-31T10:37:05.267Z,11.00
2017-12-31T10:40:15.082Z,11.10
2017-12-31T10:43:26.595Z,11.10
2017-12-31T10:46:37.391Z,11.10
2017-12-31T10:49:47.689Z,11.10
2017-12-31T10:52:57.465Z,11.10
2017-12-31T10:56:08.412Z,11.10
2017-12-31T10:59:18.998Z,11.10
2017-12-31T11:02:28.949Z,11.30
2017-12-31T11:05:38.861Z,11.40
2017-12-31T11:08:50.214Z,11.30
2017-12-31T11:12:00.626Z,11.30
2017-12-31T11:15:11.660Z,11.40
2017-12-31T11:18:22.121Z,11.40
2017-12-31T11:21:32.841Z,11.40
2017-12-31T11:24:43.759Z,11.30
2017-12-31T11:27:54.493Z,11.30
2017-12-31T11:31:05.116Z,11.30
2017-12-31T11:34:15.460Z,11.20
2017-12-31T11:37:26.209Z,11.20
2017-12-31T11:40:36.888Z,11.10
2017-12-31T11:43:48.415Z,11.10
2017-12-31T11:46:58.498Z,11.10
2017-12-31T11:50:09.217Z,11.10
2017-12-31T11:53:19.859Z,11.10
2017-12-31T11:56:32.183Z,11.10
2017-12-31T11:59:42.682Z,11.10
2017-12-31T12:02:53.324Z,11.00
2017-12-31T12:06:03.062Z,11.00
2017-12-31T12:09:14.098Z,11.00
2017-12-31T12:12:24.763Z,11.00
2017-12-31T12:15:35.517Z,11.00
2017-12-31T12:18:46.427Z,11.00
2017-12-31T12:21:57.362Z,11.00
2017-12-31T12:25:07.182Z,11.00
2017-12-31T12:28:17.211Z,10.90
2017-12-31T12:31:26.945Z,10.90
2017-12-31T12:34:36.750Z,11.00
2017-12-31T12:37:46.585Z,11.00
2017-12-31T12:40:56.427Z,11.00
2017-12-31T12:44:06.204Z,11.00
2017-12-31T12:47:16.874Z,11.10
2017-12-31T12:50:26.888Z,11.00
2017-12-31T12:53:37.518Z,11.10
2017-12-31T12:56:48.328Z,11.00
2017-12-31T12:59:58.287Z,11.00
2017-12-31T13:03:08.117Z,11.10
2017-12-31T13:06:18.731Z,11.10
2017-12-31T13:09:28.692Z,11.10
2017-12-31T13:12:39.596Z,11.10
2017-12-31T13:15:50.284Z,11.10
2017-12-31T13:19:00.102Z,11.00
2017-12-31T13:22:09.909Z,11.10
2017-12-31T13:25:19.782Z,11.00
2017-12-31T13:28:30.339Z,11.00
2017-12-31T13:31:40.599Z,11.00
2017-12-31T13:34:50.755Z,11.00
2017-12-31T13:38:01.449Z,11.00
2017-12-31T13:41:13.006Z,10.90
2017-12-31T13:44:23.088Z,10.90
2017-12-31T13:47:33.071Z,10.90
2017-12-31T13:50:42.836Z,10.90
2017-12-31T13:53:52.715Z,10.90
2017-12-31T13:57:02.527Z,10.80
2017-12-31T14:00:12.345Z,10.80
2017-12-31T14:03:22.238Z,10.80
2017-12-31T14:06:32.961Z,10.80
2017-12-31T14:09:43.626Z,10.80
2017-12-31T14:12:53.737Z,10.70
2017-12-31T14:16:04.530Z,10.70
2017-12-31T14:19:14.785Z,10.70
2017-12-31T14:22:25.470Z,10.60
2017-12-31T14:25:35.725Z,10.60
2017-12-31T14:28:47.160Z,10.60
2017-12-31T14:31:57.866Z,10.60
2017-12-31T14:35:07.993Z,10.60
2017-12-31T14:38:17.749Z,10.60
2017-12-31T14:41:27.563Z,10.60
2017-12-31T14:44:38.158Z,10.50
2017-12-31T14:47:48.172Z,10.50
2017-12-31T14:50:58.030Z,10.50
2017-12-31T14:54:07.706Z,10.50
2017-12-31T14:57:18.408Z,10.40
2017-12-31T15:00:28.470Z,10.30
2017-12-31T15:03:38.254Z,10.30
2017-12-31T15:06:48.860Z,10.40
2017-12-31T15:09:59.872Z,10.40
2017-12-31T15:13:10.087Z,10.40
2017-12-31T15:16:20.142Z,10.40
2017-12-31T15:19:31.446Z,10.40
2017-12-31T15:22:41.511Z,10.40
2017-12-31T15:25:51.362Z,10.30
2017-12-31T15:29:01.134Z,10.30
2017-12-31T15:32:11.023Z,10.30
2017-12-31T15:35:21.696Z,10.20
2017-12-31T15:38:32.508Z,10.20
2017-12-31T15:41:42.445Z,10.20
2017-12-31T15:44:52.206Z,10.20
2017-12-31T15:48:02.760Z,10.20
2017-12-31T15:51:13.580Z,10.20
2017-12-31T15:54:23.894Z,10.20
2017-12-31T15:57:33.708Z,10.20
2017-12-31T16:00:43.549Z,10.20
2017-12-31T16:03:53.375Z,10.20
2017-12-31T16:07:04.184Z,10.20
2017-12-31T16:10:14.893Z,10.20
2017-12-31T16:13:24.660Z,10.20
2017-12-31T16:16:35.320Z,10.20
2017-12-31T16:19:46.108Z,10.30
2017-12-31T16:22:56.097Z,10.30
2017-12-31T16:26:05.861Z,10.30
2017-12-31T16:29:16.274Z,10.30
2017-12-31T16:32:26.493Z,10.40
2017-12-31T16:35:36.583Z,10.30
2017-12-31T16:38:47.256Z,10.30
2017-12-31T16:41:57.196Z,10.20
2017-12-31T16:45:07.046Z,10.20
2017-12-31T16:48:17.626Z,10.20
2017-12-31T16:51:28.191Z,10.20
2017-12-31T16:54:38.255Z,10.20
2017-12-31T16:57:49.116Z,10.20
2017-12-31T17:00:59.840Z,10.10
2017-12-31T17:04:11.320Z,10.10
2017-12-31T17:07:21.363Z,10.10
2017-12-31T17:10:31.278Z,10.10
2017-12-31T17:13:41.274Z,10.10
2017-12-31T17:16:51.048Z,10.10
2017-12-31T17:20:01.006Z,10.10
2017-12-31T17:23:10.855Z,10.10
2017-12-31T17:26:21.516Z,10.10
2017-12-31T17:29:31.631Z,10.10
2017-12-31T17:32:41.370Z,10.10
2017-12-31T17:35:51.800Z,10.10
2017-12-31T17:39:01.869Z,10.10
2017-12-31T17:42:11.726Z,10.00
2017-12-31T17:45:21.647Z,10.10
2017-12-31T17:48:31.505Z,10.00
2017-12-31T17:51:42.158Z,10.00
2017-12-31T17:54:52.324Z,10.00
2017-12-31T17:58:02.889Z,9.90
2017-12-31T18:01:13.809Z,9.90
2017-12-31T18:04:23.769Z,9.90
2017-12-31T18:07:33.603Z,9.90
2017-12-31T18:10:44.557Z,9.90
2017-12-31T18:13:55.219Z,9.90
2017-12-31T18:17:05.689Z,10.00
2017-12-31T18:20:16.499Z,10.00
2017-12-31T18:23:26.307Z,10.00
2017-12-31T18:26:36.260Z,10.00
2017-12-31T18:29:46.258Z,10.00
2017-12-31T18:32:56.761Z,10.00
2017-12-31T18:36:06.652Z,10.00
2017-12-31T18:39:16.404Z,10.00
2017-12-31T18:42:27.093Z,10.00
2017-12-31T18:45:37.641Z,10.00
2017-12-31T18:48:48.382Z,10.10
2017-12-31T18:51:58.445Z,10.00
2017-12-31T18:55:08.464Z,10.10
2017-12-31T18:58:19.070Z,10.00
2017-12-31T19:01:28.981Z,10.00
2017-12-31T19:04:38.675Z,10.00
2017-12-31T19:07:48.886Z,10.00
2017-12-31T19:10:59.816Z,10.00
2017-12-31T19:14:09.721Z,10.00
2017-12-31T19:17:20.358Z,9.90
2017-12-31T19:20:30.163Z,10.00
2017-12-31T19:23:41.581Z,10.00
2017-12-31T19:26:51.636Z,10.00
2017-12-31T19:30:01.393Z,9.90
2017-12-31T19:33:11.334Z,10.00
2017-12-31T19:36:21.111Z,10.10
2017-12-31T19:39:30.891Z,10.00
2017-12-31T19:42:42.270Z,10.10
2017-12-31T19:45:53.312Z,10.10
2017-12-31T19:49:03.280Z,10.00
2017-12-31T19:52:13.296Z,10.10
2017-12-31T19:55:24.010Z,10.10
2017-12-31T19:58:34.042Z,10.00
2017-12-31T20:01:43.796Z,10.00
2017-12-31T20:04:53.644Z,9.90
2017-12-31T20:08:04.112Z,9.90
2017-12-31T20:11:14.757Z,9.90
2017-12-31T20:14:25.002Z,9.90
2017-12-31T20:17:34.755Z,9.80
2017-12-31T20:20:44.903Z,9.70
2017-12-31T20:23:55.591Z,9.70
2017-12-31T20:27:06.274Z,9.60
2017-12-31T20:30:16.196Z,9.60
2017-12-31T20:33:26.111Z,9.60
2017-12-31T20:36:36.172Z,9.50
2017-12-31T20:39:46.242Z,9.50
2017-12-31T20:42:55.963Z,9.40
2017-12-31T20:46:05.662Z,9.40
2017-12-31T20:49:15.527Z,9.40
2017-12-31T20:52:27.064Z,9.40
2017-12-31T20:55:37.158Z,9.30
2017-12-31T20:58:47.821Z,9.20
2017-12-31T21:01:57.902Z,9.20
2017-12-31T21:05:07.756Z,9.20
2017-12-31T21:08:17.571Z,9.20
2017-12-31T21:11:28.249Z,9.10
2017-12-31T21:14:39.123Z,9.20
2017-12-31T21:17:48.989Z,9.20
2017-12-31T21:20:58.979Z,9.10
2017-12-31T21:24:09.491Z,9.10
2017-12-31T21:27:20.276Z,9.00
2017-12-31T21:30:31.355Z,9.10
2017-12-31T21:33:41.449Z,9.10
2017-12-31T21:36:52.188Z,9.10
2017-12-31T21:40:03.693Z,9.10
2017-12-31T21:43:14.562Z,9.20
2017-12-31T21:46:24.490Z,9.20
2017-12-31T21:49:34.701Z,9.30
2017-12-31T21:52:45.547Z,9.20
2017-12-31T21:55:55.637Z,9.20
2017-12-31T21:59:05.232Z,9.30
2017-12-31T22:02:15.044Z,9.30
2017-12-31T22:05:25.917Z,9.30
2017-12-31T22:08:35.816Z,9.30
2017-12-31T22:11:45.707Z,9.40
2017-12-31T22:14:56.359Z,9.30
2017-12-31T22:18:06.116Z,9.30
2017-12-31T22:21:16.862Z,9.30
2017-12-31T22:24:28.255Z,9.20
2017-12-31T22:27:38.975Z,9.20
2017-12-31T22:30:49.911Z,9.10
2017-12-31T22:33:59.769Z,9.10
2017-12-31T22:37:09.547Z,9.00
2017-12-31T22:40:20.151Z,9.00
2017-12-31T22:43:29.921Z,8.90
2017-12-31T22:46:39.778Z,8.90
2017-12-31T22:49:50.473Z,8.80
2017-12-31T22:53:00.315Z,8.80
2017-12-31T22:56:10.929Z,8.80
2017-12-31T22:59:21.763Z,8.70
2017-12-31T23:02:32.917Z,8.70
2017-12-31T23:05:43.092Z,8.70
2017-12-31T23:08:52.882Z,8.70
2017-12-31T23:12:03.561Z,8.80
2017-12-31T23:15:14.377Z,8.80
2017-12-31T23:18:24.568Z,8.80
2017-12-31T23:21:35.372Z,8.90
2017-12-31T23:24:45.436Z,8.90
2017-12-31T23:27:55.214Z,8.90
2017-12-31T23:31:05.343Z,8.90
2017-12-31T23:34:15.339Z,8.90
2017-12-31T23:37:25.298Z,8.90
2017-12-31T23:40:35.593Z,8.90
2017-12-31T23:43:45.596Z,8.90
2017-12-31T23:46:55.753Z,8.80
2017-12-31T23:50:05.517Z,8.80
2017-12-31T23:53:15.580Z,8.90
2017-12-31T23:56:25.626Z,8.80
2017-12-31T23:59:35.640Z,8.90
